createdAt,value
2019-01-22T00:01:35.288Z,0.30
2019-01-22T00:04:05.182Z,0.30
2019-01-22T00:06:34.880Z,0.30
2019-01-22T00:09:07.884Z,0.30
2019-01-22T00:11:37.555Z,0.20
2019-01-22T00:14:07.157Z,0.20
2019-01-22T00:16:37.053Z,0.20
2019-01-22T00:19:07.867Z,0.20
2019-01-22T00:21:39.698Z,0.20
2019-01-22T00:24:10.055Z,0.20
2019-01-22T00:26:39.909Z,0.20
2019-01-22T00:29:09.539Z,0.20
2019-01-22T00:31:39.141Z,0.20
2019-01-22T00:34:08.817Z,0.10
2019-01-22T00:36:39.348Z,0.10
2019-01-22T00:39:09.754Z,0.10
2019-01-22T00:41:40.641Z,0.10
2019-01-22T00:44:11.526Z,0.10
2019-01-22T00:46:43.070Z,0.10
2019-01-22T00:49:13.900Z,0.10
2019-01-22T00:51:43.910Z,0.00
2019-01-22T00:54:15.423Z,0.00
2019-01-22T00:56:46.051Z,0.00
2019-01-22T00:59:15.726Z,0.00
2019-01-22T01:01:45.511Z,0.00
2019-01-22T01:04:15.129Z,0.00
2019-01-22T01:06:44.733Z,-0.10
2019-01-22T01:09:14.442Z,-0.10
2019-01-22T01:11:44.118Z,-0.10
2019-01-22T01:14:13.766Z,-0.10
2019-01-22T01:16:44.671Z,-0.10
2019-01-22T01:19:14.724Z,-0.10
2019-01-22T01:21:45.063Z,-0.10
2019-01-22T01:24:14.867Z,-0.10
2019-01-22T01:26:44.544Z,-0.10
2019-01-22T01:29:14.418Z,-0.10
2019-01-22T01:31:44.397Z,-0.10
2019-01-22T01:34:15.044Z,-0.10
2019-01-22T01:36:44.701Z,-0.10
2019-01-22T01:39:14.631Z,-0.10
2019-01-22T01:41:44.517Z,-0.10
2019-01-22T01:44:14.175Z,-0.10
2019-01-22T01:46:44.207Z,-0.20
2019-01-22T01:49:13.874Z,-0.20
2019-01-22T01:51:43.486Z,-0.20
2019-01-22T01:54:13.306Z,-0.20
2019-01-22T01:56:42.957Z,-0.20
2019-01-22T01:59:12.603Z,-0.20
2019-01-22T02:01:42.304Z,-0.20
2019-01-22T02:04:11.923Z,-0.20
2019-01-22T02:06:42.566Z,-0.20
2019-01-22T02:09:12.422Z,-0.10
2019-01-22T02:11:42.432Z,-0.10
2019-01-22T02:14:14.216Z,-0.10
2019-01-22T02:17:06.062Z,-0.10
2019-01-22T02:20:17.401Z,-0.10
2019-01-22T02:23:08.494Z,-0.10
2019-01-22T02:26:17.190Z,-0.10
2019-01-22T02:29:49.518Z,-0.10
2019-01-22T02:32:46.679Z,0.00
2019-01-22T02:35:36.325Z,-0.10
2019-01-22T02:38:34.625Z,-0.10
2019-01-22T02:41:18.158Z,0.00
2019-01-22T02:44:24.267Z,-0.10
2019-01-22T02:47:42.499Z,-0.10
2019-01-22T02:50:50.144Z,-0.10
2019-01-22T02:53:44.212Z,-0.10
2019-01-22T02:56:44.291Z,-0.20
2019-01-22T03:00:02.030Z,-0.20
2019-01-22T03:03:00.721Z,-0.20
2019-01-22T03:05:47.566Z,-0.30
2019-01-22T03:09:02.348Z,-0.30
2019-01-22T03:11:52.946Z,-0.30
2019-01-22T03:15:28.673Z,-0.40
2019-01-22T03:18:41.654Z,-0.50
2019-01-22T03:21:26.986Z,-0.50
2019-01-22T03:24:11.166Z,-0.50
2019-01-22T03:27:16.087Z,-0.60
2019-01-22T03:30:21.743Z,-0.60
2019-01-22T03:33:22.328Z,-0.70
2019-01-22T03:36:30.310Z,-0.70
2019-01-22T03:39:25.530Z,-0.70
2019-01-22T03:42:31.548Z,-0.70
2019-01-22T03:45:21.902Z,-0.70
2019-01-22T03:48:33.315Z,-0.80
2019-01-22T03:51:17.426Z,-0.90
2019-01-22T03:54:19.898Z,-0.80
2019-01-22T03:57:19.544Z,-0.90
2019-01-22T03:59:50.243Z,-0.90
2019-01-22T04:02:20.543Z,-0.90
2019-01-22T04:04:50.177Z,-0.90
2019-01-22T04:07:19.795Z,-0.90
2019-01-22T04:10:12.607Z,-1.00
2019-01-22T04:12:42.282Z,-1.00
2019-01-22T04:15:15.324Z,-1.00
2019-01-22T04:17:45.015Z,-1.00
2019-01-22T04:20:15.230Z,-1.00
2019-01-22T04:22:55.378Z,-1.00
2019-01-22T04:25:42.198Z,-1.00
2019-01-22T04:28:51.740Z,-1.00
2019-01-22T04:31:28.485Z,-1.00
2019-01-22T04:34:31.805Z,-1.00
2019-01-22T04:37:55.002Z,-1.00
2019-01-22T04:41:02.607Z,-1.00
2019-01-22T04:44:23.525Z,-1.00
2019-01-22T04:47:11.473Z,-1.00
2019-01-22T04:50:11.257Z,-1.00
2019-01-22T04:53:25.752Z,-1.00
2019-01-22T04:56:45.377Z,-1.00
2019-01-22T04:59:50.305Z,-1.00
2019-01-22T05:02:55.190Z,-1.00
2019-01-22T05:06:06.317Z,-1.00
2019-01-22T05:08:54.978Z,-1.00
2019-01-22T05:11:54.004Z,-1.00
2019-01-22T05:14:41.883Z,-1.00
2019-01-22T05:17:21.570Z,-1.00
2019-01-22T05:20:25.174Z,-1.00
2019-01-22T05:23:07.778Z,-1.00
2019-01-22T05:26:26.165Z,-1.00
2019-01-22T05:29:43.222Z,-1.00
2019-01-22T05:32:50.237Z,-0.90
2019-01-22T05:35:46.884Z,-0.90
2019-01-22T05:38:43.222Z,-0.90
2019-01-22T05:41:29.990Z,-0.90
2019-01-22T05:44:18.518Z,-0.80
2019-01-22T05:47:31.500Z,-0.80
2019-01-22T05:50:24.472Z,-0.80
2019-01-22T05:53:42.483Z,-0.80
2019-01-22T05:56:16.510Z,-0.80
2019-01-22T05:59:23.819Z,-0.80
2019-01-22T06:02:03.325Z,-0.70
2019-01-22T06:05:26.511Z,-0.70
2019-01-22T06:08:11.911Z,-0.70
2019-01-22T06:11:38.174Z,-0.70
2019-01-22T06:14:53.448Z,-0.60
2019-01-22T06:18:07.676Z,-0.60
2019-01-22T06:21:21.798Z,-0.60
2019-01-22T06:24:33.220Z,-0.60
2019-01-22T06:27:07.712Z,-0.50
2019-01-22T06:30:02.007Z,-0.50
2019-01-22T06:32:45.936Z,-0.50
2019-01-22T06:35:41.357Z,-0.50
2019-01-22T06:38:36.932Z,-0.50
2019-01-22T06:41:48.145Z,-0.50
2019-01-22T06:44:55.867Z,-0.50
2019-01-22T06:47:38.265Z,-0.40
2019-01-22T06:50:23.033Z,-0.40
2019-01-22T06:53:10.750Z,-0.40
2019-01-22T06:56:06.266Z,-0.40
2019-01-22T06:59:35.536Z,-0.40
2019-01-22T07:02:30.717Z,-0.40
2019-01-22T07:05:05.863Z,-0.40
2019-01-22T07:08:17.537Z,-0.50
2019-01-22T07:11:10.910Z,-0.40
2019-01-22T07:14:01.671Z,-0.50
2019-01-22T07:16:53.008Z,-0.50
2019-01-22T07:19:41.454Z,-0.50
2019-01-22T07:22:28.046Z,-0.50
2019-01-22T07:25:38.937Z,-0.50
2019-01-22T07:28:39.730Z,-0.50
2019-01-22T07:31:38.657Z,-0.50
2019-01-22T07:34:23.004Z,-0.50
2019-01-22T07:37:19.900Z,-0.50
2019-01-22T07:40:43.073Z,-0.50
2019-01-22T07:43:36.719Z,-0.40
2019-01-22T07:46:41.498Z,-0.40
2019-01-22T07:49:52.535Z,-0.40
2019-01-22T07:52:47.955Z,-0.50
2019-01-22T07:55:39.550Z,-0.40
2019-01-22T07:58:39.887Z,-0.50
2019-01-22T08:01:48.956Z,-0.50
2019-01-22T08:04:52.109Z,-0.40
2019-01-22T08:08:19.350Z,-0.50
2019-01-22T08:11:38.839Z,-0.50
2019-01-22T08:14:49.178Z,-0.50
2019-01-22T08:17:35.074Z,-0.50
2019-01-22T08:20:54.242Z,-0.60
2019-01-22T08:23:42.210Z,-0.60
2019-01-22T08:27:02.311Z,-0.60
2019-01-22T08:29:58.288Z,-0.60
2019-01-22T08:32:56.050Z,-0.60
2019-01-22T08:36:14.218Z,-0.60
2019-01-22T08:39:28.226Z,-0.60
2019-01-22T08:42:28.935Z,-0.60
2019-01-22T08:45:18.887Z,-0.50
2019-01-22T08:48:18.346Z,-0.50
2019-01-22T08:51:07.926Z,-0.50
2019-01-22T08:53:57.458Z,-0.50
2019-01-22T08:57:05.583Z,-0.50
2019-01-22T09:00:16.942Z,-0.40
2019-01-22T09:03:16.539Z,-0.40
2019-01-22T09:06:08.820Z,-0.40
2019-01-22T09:08:54.292Z,-0.40
2019-01-22T09:12:02.994Z,-0.30
2019-01-22T09:15:19.825Z,-0.30
2019-01-22T09:18:33.514Z,-0.30
2019-01-22T09:21:35.213Z,-0.20
2019-01-22T09:24:38.613Z,-0.20
2019-01-22T09:27:59.351Z,-0.10
2019-01-22T09:30:40.531Z,-0.20
2019-01-22T09:33:49.611Z,-0.10
2019-01-22T09:36:43.124Z,-0.10
2019-01-22T09:39:15.797Z,-0.10
2019-01-22T09:41:45.599Z,-0.10
2019-01-22T09:44:15.265Z,-0.10
2019-01-22T09:46:44.878Z,-0.10
2019-01-22T09:49:14.568Z,-0.10
2019-01-22T09:51:44.324Z,-0.10
2019-01-22T09:54:13.930Z,0.00
2019-01-22T09:56:43.571Z,-0.10
2019-01-22T09:59:13.167Z,-0.10
2019-01-22T10:01:42.815Z,-0.10
2019-01-22T10:04:12.465Z,-0.10
2019-01-22T10:06:42.098Z,-0.10
2019-01-22T10:09:12.393Z,-0.20
2019-01-22T10:11:42.231Z,-0.20
2019-01-22T10:14:12.198Z,-0.20
2019-01-22T10:16:41.949Z,-0.20
2019-01-22T10:19:11.578Z,-0.30
2019-01-22T10:21:41.181Z,-0.30
2019-01-22T10:24:10.838Z,-0.30
2019-01-22T10:26:41.598Z,-0.30
2019-01-22T10:29:11.208Z,-0.40
2019-01-22T10:31:40.840Z,-0.30
2019-01-22T10:34:10.768Z,-0.30
2019-01-22T10:36:40.446Z,-0.40
2019-01-22T10:39:10.140Z,-0.40
2019-01-22T10:41:39.781Z,-0.40
2019-01-22T10:44:09.454Z,-0.40
2019-01-22T10:46:39.181Z,-0.40
2019-01-22T10:49:08.794Z,-0.40
2019-01-22T10:51:38.466Z,-0.50
2019-01-22T10:54:08.186Z,-0.40
2019-01-22T10:56:37.888Z,-0.40
2019-01-22T10:59:07.561Z,-0.40
2019-01-22T11:01:37.154Z,-0.40
2019-01-22T11:04:06.858Z,-0.40
2019-01-22T11:06:36.565Z,-0.40
2019-01-22T11:09:07.798Z,-0.40
2019-01-22T11:11:37.762Z,-0.40
2019-01-22T11:14:07.459Z,-0.30
2019-01-22T11:16:37.133Z,-0.40
2019-01-22T11:19:06.929Z,-0.40
2019-01-22T11:21:36.530Z,-0.40
2019-01-22T11:24:06.155Z,-0.40
2019-01-22T11:26:35.762Z,-0.40
2019-01-22T11:29:05.582Z,-0.40
2019-01-22T11:31:35.233Z,-0.40
2019-01-22T11:34:05.217Z,-0.40
2019-01-22T11:36:34.918Z,-0.40
2019-01-22T11:39:09.499Z,-0.40
2019-01-22T11:41:39.194Z,-0.40
2019-01-22T11:44:08.802Z,-0.40
2019-01-22T11:46:38.393Z,-0.40
2019-01-22T11:49:08.007Z,-0.40
2019-01-22T11:51:37.690Z,-0.40
2019-01-22T11:54:07.412Z,-0.40
2019-01-22T11:56:37.013Z,-0.40
2019-01-22T11:59:06.743Z,-0.40
2019-01-22T12:01:36.359Z,-0.40
2019-01-22T12:04:06.227Z,-0.30
2019-01-22T12:06:35.861Z,-0.30
2019-01-22T12:09:07.993Z,-0.20
2019-01-22T12:11:37.623Z,-0.20
2019-01-22T12:14:07.537Z,-0.10
2019-01-22T12:16:37.150Z,-0.10
2019-01-22T12:19:06.858Z,-0.10
2019-01-22T12:21:36.471Z,0.00
2019-01-22T12:24:07.241Z,0.00
2019-01-22T12:26:36.851Z,0.10
2019-01-22T12:29:07.114Z,0.20
2019-01-22T12:31:36.711Z,0.20
2019-01-22T12:34:06.420Z,0.20
2019-01-22T12:36:36.094Z,0.30
2019-01-22T12:39:09.350Z,0.30
2019-01-22T12:41:39.028Z,0.40
2019-01-22T12:44:08.750Z,0.40
2019-01-22T12:46:38.339Z,0.40
2019-01-22T12:49:08.023Z,0.40
2019-01-22T12:51:37.722Z,0.40
2019-01-22T12:54:07.361Z,0.40
2019-01-22T12:56:36.986Z,0.50
2019-01-22T12:59:06.607Z,0.40
2019-01-22T13:01:36.285Z,0.50
2019-01-22T13:04:06.324Z,0.40
2019-01-22T13:06:35.938Z,0.40
2019-01-22T13:09:07.649Z,0.40
2019-01-22T13:11:37.283Z,0.40
2019-01-22T13:14:06.970Z,0.40
2019-01-22T13:16:36.585Z,0.50
2019-01-22T13:19:06.290Z,0.50
2019-01-22T13:21:35.951Z,0.60
2019-01-22T13:24:05.714Z,0.60
2019-01-22T13:26:35.327Z,0.60
2019-01-22T13:29:05.067Z,0.60
2019-01-22T13:31:34.694Z,0.50
2019-01-22T13:34:04.897Z,0.50
2019-01-22T13:36:34.517Z,0.40
2019-01-22T13:39:08.285Z,0.50
2019-01-22T13:41:37.990Z,0.50
2019-01-22T13:44:07.582Z,0.50
2019-01-22T13:46:37.241Z,0.50
2019-01-22T13:49:06.843Z,0.60
2019-01-22T13:51:36.440Z,0.50
2019-01-22T13:54:06.186Z,0.60
2019-01-22T13:56:36.082Z,0.60
2019-01-22T13:59:06.018Z,0.50
2019-01-22T14:01:35.631Z,0.50
2019-01-22T14:04:05.366Z,0.50
2019-01-22T14:06:35.127Z,0.50
2019-01-22T14:09:07.962Z,0.40
2019-01-22T14:11:37.688Z,0.40
2019-01-22T14:14:07.354Z,0.30
2019-01-22T14:16:37.001Z,0.30
2019-01-22T14:19:06.994Z,0.20
2019-01-22T14:21:36.683Z,0.20
2019-01-22T14:24:06.265Z,0.10
2019-01-22T14:26:36.228Z,0.10
2019-01-22T14:29:05.978Z,0.10
2019-01-22T14:31:35.625Z,0.10
2019-01-22T14:34:05.294Z,0.10
2019-01-22T14:36:35.023Z,0.00
2019-01-22T14:39:07.264Z,0.00
2019-01-22T14:41:36.918Z,0.00
2019-01-22T14:44:06.687Z,0.00
2019-01-22T14:46:36.338Z,0.00
2019-01-22T14:49:06.057Z,0.00
2019-01-22T14:51:35.894Z,0.00
2019-01-22T14:54:05.846Z,-0.10
2019-01-22T14:56:35.497Z,-0.10
2019-01-22T14:59:05.380Z,-0.10
2019-01-22T15:01:35.228Z,-0.10
2019-01-22T15:04:05.449Z,-0.10
2019-01-22T15:06:35.316Z,-0.10
2019-01-22T15:09:07.562Z,-0.20
2019-01-22T15:11:37.513Z,-0.20
2019-01-22T15:14:07.289Z,-0.20
2019-01-22T15:16:37.078Z,-0.30
2019-01-22T15:19:06.897Z,-0.30
2019-01-22T15:21:36.578Z,-0.30
2019-01-22T15:24:06.382Z,-0.40
2019-01-22T15:26:39.508Z,-0.40
2019-01-22T15:29:08.678Z,-0.40
2019-01-22T15:31:38.450Z,-0.40
2019-01-22T15:34:08.180Z,-0.40
2019-01-22T15:36:37.842Z,-0.40
2019-01-22T15:39:09.215Z,-0.40
2019-01-22T15:41:39.053Z,-0.40
2019-01-22T15:44:08.816Z,-0.40
2019-01-22T15:46:38.595Z,-0.40
2019-01-22T15:49:08.407Z,-0.50
2019-01-22T15:51:38.176Z,-0.50
2019-01-22T15:54:07.841Z,-0.50
2019-01-22T15:56:37.534Z,-0.50
2019-01-22T15:59:07.322Z,-0.60
2019-01-22T16:01:37.189Z,-0.60
2019-01-22T16:04:06.937Z,-0.60
2019-01-22T16:06:36.595Z,-0.60
2019-01-22T16:09:07.790Z,-0.60
2019-01-22T16:11:37.478Z,-0.60
2019-01-22T16:14:07.186Z,-0.60
2019-01-22T16:16:37.099Z,-0.60
2019-01-22T16:19:06.751Z,-0.60
2019-01-22T16:21:36.566Z,-0.60
2019-01-22T16:24:06.275Z,-0.60
2019-01-22T16:26:36.019Z,-0.70
2019-01-22T16:29:05.888Z,-0.60
2019-01-22T16:31:35.513Z,-0.60
2019-01-22T16:34:05.454Z,-0.70
2019-01-22T16:36:35.148Z,-0.70
2019-01-22T16:39:07.311Z,-0.70
2019-01-22T16:41:37.121Z,-0.80
2019-01-22T16:44:06.740Z,-0.80
2019-01-22T16:46:37.393Z,-0.80
2019-01-22T16:49:07.101Z,-0.80
2019-01-22T16:51:36.843Z,-0.80
2019-01-22T16:54:06.569Z,-0.80
2019-01-22T16:56:36.233Z,-0.80
2019-01-22T16:59:09.374Z,-0.80
2019-01-22T17:01:39.149Z,-0.80
2019-01-22T17:04:08.973Z,-0.80
2019-01-22T17:06:38.849Z,-0.80
2019-01-22T17:09:09.111Z,-0.80
2019-01-22T17:11:38.849Z,-0.90
2019-01-22T17:14:08.505Z,-0.90
2019-01-22T17:16:38.250Z,-0.90
2019-01-22T17:19:07.892Z,-0.80
2019-01-22T17:21:38.685Z,-0.80
2019-01-22T17:24:10.576Z,-0.80
2019-01-22T17:26:40.951Z,-0.80
2019-01-22T17:29:11.585Z,-0.90
2019-01-22T17:32:04.366Z,-0.90
2019-01-22T17:34:35.858Z,-0.90
2019-01-22T17:37:07.422Z,-0.90
2019-01-22T17:39:37.180Z,-0.90
2019-01-22T17:42:06.903Z,-0.90
2019-01-22T17:44:36.586Z,-0.90
2019-01-22T17:47:06.434Z,-0.90
2019-01-22T17:49:36.217Z,-0.90
2019-01-22T17:52:06.003Z,-0.90
2019-01-22T17:54:35.701Z,-1.00
2019-01-22T17:57:06.914Z,-1.00
2019-01-22T17:59:36.645Z,-1.00
2019-01-22T18:02:06.597Z,-1.00
2019-01-22T18:04:36.363Z,-1.00
2019-01-22T18:07:06.133Z,-1.00
2019-01-22T18:09:35.837Z,-1.10
2019-01-22T18:12:05.603Z,-1.00
2019-01-22T18:14:35.619Z,-1.00
2019-01-22T18:17:05.431Z,-0.90
2019-01-22T18:19:35.223Z,-0.90
2019-01-22T18:22:05.435Z,-0.90
2019-01-22T18:24:35.146Z,-0.90
2019-01-22T18:27:04.929Z,-0.90
2019-01-22T18:29:34.620Z,-0.90
2019-01-22T18:32:04.990Z,-0.90
2019-01-22T18:34:34.630Z,-0.90
2019-01-22T18:37:05.209Z,-1.00
2019-01-22T18:39:34.845Z,-0.90
2019-01-22T18:42:04.974Z,-1.00
2019-01-22T18:44:34.713Z,-1.00
2019-01-22T18:47:04.942Z,-1.00
2019-01-22T18:49:34.672Z,-1.00
2019-01-22T18:52:05.176Z,-1.00
2019-01-22T18:54:35.102Z,-1.10
2019-01-22T18:57:05.208Z,-1.10
2019-01-22T18:59:35.177Z,-1.10
2019-01-22T19:02:05.094Z,-1.10
2019-01-22T19:04:34.949Z,-1.10
2019-01-22T19:07:04.988Z,-1.20
2019-01-22T19:09:34.730Z,-1.20
2019-01-22T19:12:04.782Z,-1.20
2019-01-22T19:14:34.496Z,-1.20
2019-01-22T19:17:04.950Z,-1.20
2019-01-22T19:19:34.610Z,-1.20
2019-01-22T19:22:05.034Z,-1.20
2019-01-22T19:24:34.818Z,-1.20
2019-01-22T19:27:04.940Z,-1.20
2019-01-22T19:29:34.609Z,-1.20
2019-01-22T19:32:04.923Z,-1.20
2019-01-22T19:34:34.636Z,-1.30
2019-01-22T19:37:05.134Z,-1.30
2019-01-22T19:39:34.764Z,-1.30
2019-01-22T19:42:07.670Z,-1.30
2019-01-22T19:44:38.258Z,-1.30
2019-01-22T19:47:08.053Z,-1.30
2019-01-22T19:49:38.179Z,-1.30
2019-01-22T19:52:34.772Z,-1.30
2019-01-22T19:55:10.948Z,-1.40
2019-01-22T19:57:41.351Z,-1.40
2019-01-22T20:00:17.894Z,-1.50
2019-01-22T20:02:49.681Z,-1.50
2019-01-22T20:05:20.263Z,-1.50
2019-01-22T20:07:50.298Z,-1.50
2019-01-22T20:10:20.263Z,-1.50
2019-01-22T20:12:51.278Z,-1.50
2019-01-22T20:15:22.188Z,-1.50
2019-01-22T20:17:52.680Z,-1.60
2019-01-22T20:20:22.572Z,-1.60
2019-01-22T20:22:52.278Z,-1.60
2019-01-22T20:25:22.091Z,-1.60
2019-01-22T20:27:51.791Z,-1.60
2019-01-22T20:30:29.642Z,-1.60
2019-01-22T20:32:59.358Z,-1.60
2019-01-22T20:35:29.070Z,-1.60
2019-01-22T20:37:58.921Z,-1.60
2019-01-22T20:40:28.629Z,-1.60
2019-01-22T20:42:58.244Z,-1.70
2019-01-22T20:45:29.063Z,-1.70
2019-01-22T20:47:58.937Z,-1.60
2019-01-22T20:50:28.717Z,-1.70
2019-01-22T20:52:58.462Z,-1.70
2019-01-22T20:55:28.340Z,-1.70
2019-01-22T20:57:58.056Z,-1.70
2019-01-22T21:00:27.789Z,-1.70
2019-01-22T21:02:57.473Z,-1.80
2019-01-22T21:05:28.901Z,-1.70
2019-01-22T21:07:58.678Z,-1.70
2019-01-22T21:10:30.218Z,-1.80
2019-01-22T21:13:00.631Z,-1.80
2019-01-22T21:15:30.450Z,-1.90
2019-01-22T21:18:00.162Z,-1.90
2019-01-22T21:20:30.066Z,-1.90
2019-01-22T21:22:59.734Z,-1.90
2019-01-22T21:25:29.437Z,-1.90
2019-01-22T21:28:01.812Z,-1.90
2019-01-22T21:30:32.732Z,-1.90
2019-01-22T21:33:02.954Z,-1.90
2019-01-22T21:35:32.763Z,-1.90
2019-01-22T21:38:02.484Z,-1.90
2019-01-22T21:40:32.170Z,-1.90
2019-01-22T21:43:01.839Z,-1.90
2019-01-22T21:45:31.765Z,-1.90
2019-01-22T21:48:01.438Z,-1.90
2019-01-22T21:50:31.149Z,-1.90
2019-01-22T21:53:00.858Z,-2.00
2019-01-22T21:55:30.599Z,-2.00
2019-01-22T21:58:00.262Z,-2.00
2019-01-22T22:00:29.959Z,-2.00
2019-01-22T22:02:59.678Z,-2.00
2019-01-22T22:05:30.345Z,-2.00
2019-01-22T22:08:00.117Z,-2.00
2019-01-22T22:10:29.824Z,-2.00
2019-01-22T22:12:59.681Z,-2.00
2019-01-22T22:15:29.381Z,-2.00
2019-01-22T22:17:59.218Z,-2.00
2019-01-22T22:20:29.890Z,-2.00
2019-01-22T22:22:59.534Z,-2.10
2019-01-22T22:25:29.246Z,-2.10
2019-01-22T22:27:59.158Z,-2.10
2019-01-22T22:30:31.202Z,-2.10
2019-01-22T22:33:00.937Z,-2.10
2019-01-22T22:35:31.727Z,-2.10
2019-01-22T22:38:01.636Z,-2.10
2019-01-22T22:40:31.349Z,-2.10
2019-01-22T22:43:00.985Z,-2.10
2019-01-22T22:45:30.677Z,-2.10
2019-01-22T22:48:00.381Z,-2.10
2019-01-22T22:50:31.885Z,-2.10
2019-01-22T22:53:01.655Z,-2.10
2019-01-22T22:55:31.326Z,-2.10
2019-01-22T22:58:00.990Z,-2.00
2019-01-22T23:00:41.949Z,-2.00
2019-01-22T23:03:13.607Z,-2.00
2019-01-22T23:05:43.314Z,-2.10
2019-01-22T23:08:13.134Z,-2.10
2019-01-22T23:10:42.913Z,-2.10
2019-01-22T23:13:12.553Z,-2.10
2019-01-22T23:15:42.465Z,-2.20
2019-01-22T23:18:12.284Z,-2.20
2019-01-22T23:20:41.969Z,-2.20
2019-01-22T23:23:11.681Z,-2.20
2019-01-22T23:25:41.333Z,-2.20
2019-01-22T23:28:11.018Z,-2.20
2019-01-22T23:30:40.817Z,-2.20
2019-01-22T23:33:10.437Z,-2.20
2019-01-22T23:35:40.333Z,-2.20
2019-01-22T23:38:09.965Z,-2.20
2019-01-22T23:40:39.657Z,-2.20
2019-01-22T23:43:09.276Z,-2.20
2019-01-22T23:45:38.926Z,-2.20
2019-01-22T23:48:08.668Z,-2.20
2019-01-22T23:50:38.328Z,-2.20
2019-01-22T23:53:08.030Z,-2.30
2019-01-22T23:55:37.717Z,-2.30
2019-01-22T23:58:07.351Z,-2.30
